createdAt,value
2018-03-22T00:00:13.926Z,3.3
2018-03-22T00:13:05.034Z,3.3
2018-03-22T00:27:08.275Z,3.3
2018-03-22T00:40:45.440Z,3.3
2018-03-22T00:53:58.179Z,3.3
2018-03-22T01:07:16.804Z,3.4
2018-03-22T01:21:00.231Z,3.4
2018-03-22T01:34:39.809Z,3.5
2018-03-22T01:49:02.932Z,3.5
2018-03-22T02:02:23.201Z,3.5
2018-03-22T02:29:25.238Z,3.5
2018-03-22T03:00:36.485Z,3.4
2018-03-22T03:13:44.340Z,3.4
2018-03-22T03:27:54.689Z,3.3
2018-03-22T03:41:25.628Z,3.3
2018-03-22T03:55:14.450Z,3.3
2018-03-22T04:08:36.372Z,3.3
2018-03-22T04:21:20.996Z,3.3
2018-03-22T04:34:42.329Z,3.3
2018-03-22T05:15:52.976Z,3.4
2018-03-22T05:30:33.306Z,3.4
2018-03-22T05:43:04.072Z,3.4
2018-03-22T06:23:21.725Z,3.4
2018-03-22T06:51:03.175Z,3.5
2018-03-22T07:17:16.499Z,3.6
2018-03-22T07:42:28.710Z,3.7
2018-03-22T07:55:30.263Z,3.8
2018-03-22T08:05:45.258Z,3.8
2018-03-22T08:16:34.605Z,4.0
2018-03-22T08:38:55.301Z,4.2
2018-03-22T08:49:11.186Z,4.2
2018-03-22T09:00:00.580Z,4.4
2018-03-22T09:10:16.073Z,4.4
2018-03-22T09:20:31.329Z,4.6
2018-03-22T09:31:24.911Z,4.8
2018-03-22T09:41:40.422Z,4.8
2018-03-22T09:53:29.054Z,4.9
2018-03-22T10:03:44.038Z,5.1
2018-03-22T10:15:13.021Z,5.7
2018-03-22T10:29:14.934Z,6.2
2018-03-22T10:39:29.434Z,6.2
2018-03-22T10:49:44.444Z,7.8
2018-03-22T11:13:29.274Z,9.4
2018-03-22T11:36:36.287Z,9.4
2018-03-22T11:46:50.951Z,9.4
2018-03-22T11:57:05.368Z,9.9
2018-03-22T12:07:19.856Z,10.4
2018-03-22T12:17:35.453Z,10.5
2018-03-22T12:27:50.981Z,10.5
2018-03-22T12:38:06.173Z,10.5
2018-03-22T13:00:30.288Z,10.6
2018-03-22T13:10:46.326Z,10.6
2018-03-22T13:21:02.105Z,10.6
2018-03-22T13:34:00.191Z,10.5
2018-03-22T13:44:15.328Z,10.5
2018-03-22T14:00:05.455Z,10.2
2018-03-22T14:13:19.434Z,10.1
2018-03-22T14:24:11.603Z,9.9
2018-03-22T14:35:01.544Z,9.8
2018-03-22T14:47:18.112Z,9.6
2018-03-22T14:58:28.370Z,9.5
2018-03-22T15:08:43.808Z,9.5
2018-03-22T15:19:48.740Z,9.5
2018-03-22T15:30:04.161Z,9.5
2018-03-22T15:40:19.140Z,9.5
2018-03-22T15:51:09.804Z,9.4
2018-03-22T16:02:43.405Z,9.4
2018-03-22T16:12:58.621Z,9.4
2018-03-22T16:24:03.025Z,9.3
2018-03-22T16:34:55.805Z,9.2
2018-03-22T16:45:59.133Z,9.1
2018-03-22T16:56:20.006Z,9.1
2018-03-22T17:07:26.341Z,8.8
2018-03-22T17:18:42.570Z,8.7
2018-03-22T17:29:06.674Z,8.7
2018-03-22T17:39:20.737Z,8.6
2018-03-22T18:08:35.889Z,8.1
2018-03-22T18:18:51.296Z,8.2
2018-03-22T18:30:54.434Z,7.8
2018-03-22T18:45:34.171Z,7.7
2018-03-22T18:59:06.767Z,7.6
2018-03-22T19:12:32.826Z,7.6
2018-03-22T19:26:37.263Z,7.4
2018-03-22T19:38:29.302Z,7.3
2018-03-22T19:49:14.584Z,7.3
2018-03-22T20:02:06.029Z,7.2
2018-03-22T20:12:20.655Z,7.2
2018-03-22T20:23:06.867Z,7.0
2018-03-22T20:33:19.123Z,7.1
2018-03-22T20:44:05.358Z,6.9
2018-03-22T20:54:50.362Z,6.9
2018-03-22T21:05:41.168Z,6.9
2018-03-22T21:18:13.459Z,6.9
2018-03-22T21:43:42.363Z,6.7
2018-03-22T21:56:42.287Z,6.6
2018-03-22T22:06:56.370Z,6.6
2018-03-22T22:17:41.384Z,6.5
2018-03-22T22:27:55.007Z,6.5
2018-03-22T22:38:09.613Z,6.5
2018-03-22T22:48:23.930Z,6.4
2018-03-22T22:59:09.371Z,6.3
2018-03-22T23:09:23.601Z,6.3
2018-03-22T23:20:09.122Z,6.2
2018-03-22T23:30:55.758Z,6.1
2018-03-22T23:41:41.756Z,6.0
2018-03-22T23:52:28.577Z,6.0
